Time;durP1;ratioP1;P1;durP2;ratioP2;P2;SDS_P1;SDS_P2;PMS_P1;PMS_P2;Temp;Humidity;BMP_temperature;BMP_pressure;BME280_temperature;BME280_humidity;BME280_pressure;Samples;Min_cycle;Max_cycle;Signal;HPM_P1;HPM_P2
2023/10/17 00:01:59;;;;;;;7.93;3.13;;;;;;;;;;5042627;28;20018;-72
2023/10/17 00:04:27;;;;;;;14.18;3.35;;;;;;;;;;5036355;28;20017;-72
2023/10/17 00:06:58;;;;;;;10.43;5.53;;;;;;;;;;5050351;28;20023;-72
2023/10/17 00:09:26;;;;;;;8.55;3.85;;;;;;;;;;5050592;28;20546;-72
2023/10/17 00:14:23;;;;;;;6.03;3.10;;;;;;;;;;5050150;28;20032;-72
2023/10/17 00:16:48;;;;;;;6.07;3.00;;;;;;;;;;5042914;28;20055;-72
2023/10/17 00:19:16;;;;;;;14.88;3.33;;;;;;;;;;5030797;28;20029;-72
2023/10/17 00:21:41;;;;;;;9.93;3.35;;;;;;;;;;5026346;28;20017;-72
2023/10/17 00:24:10;;;;;;;6.65;2.72;;;;;;;;;;5030131;28;20101;-72
2023/10/17 00:26:36;;;;;;;6.20;2.80;;;;;;;;;;5030235;28;20060;-72
2023/10/17 00:29:05;;;;;;;7.68;2.75;;;;;;;;;;5030062;28;20362;-72
2023/10/17 00:31:30;;;;;;;7.63;3.08;;;;;;;;;;5018736;28;20105;-72
2023/10/17 00:33:58;;;;;;;14.57;3.43;;;;;;;;;;5022632;28;20456;-72
2023/10/17 00:36:27;;;;;;;9.32;3.65;;;;;;;;;;5003245;28;20260;-72
2023/10/17 00:39:16;;;;;;;6.67;3.23;;;;;;;;;;5030138;28;20095;-72
2023/10/17 00:42:09;;;;;;;7.88;3.28;;;;;;;;;;5030241;28;20029;-72
2023/10/17 00:44:34;;;;;;;11.60;3.50;;;;;;;;;;5024227;28;20027;-72
2023/10/17 00:47:01;;;;;;;9.00;3.40;;;;;;;;;;5017535;28;20097;-72
2023/10/17 00:49:29;;;;;;;7.10;3.08;;;;;;;;;;5023712;28;20296;-72
2023/10/17 00:51:55;;;;;;;7.50;3.13;;;;;;;;;;5030082;28;20093;-72
2023/10/17 00:54:21;;;;;;;10.70;3.42;;;;;;;;;;5029999;28;20104;-72
2023/10/17 00:56:47;;;;;;;6.28;3.55;;;;;;;;;;5030175;28;20092;-72
2023/10/17 00:59:12;;;;;;;8.13;3.38;;;;;;;;;;5024807;28;20036;-72
2023/10/17 01:01:40;;;;;;;11.70;4.00;;;;;;;;;;5018933;28;20026;-72
2023/10/17 01:04:05;;;;;;;12.40;3.90;;;;;;;;;;5029727;28;20390;-72
2023/10/17 01:08:58;;;;;;;9.53;4.00;;;;;;;;;;5029492;28;20716;-72
2023/10/17 01:11:29;;;;;;;10.48;3.92;;;;;;;;;;5029522;28;20268;-72
2023/10/17 01:13:56;;;;;;;8.45;4.18;;;;;;;;;;5023056;28;20018;-71
2023/10/17 01:16:22;;;;;;;14.73;4.20;;;;;;;;;;5019711;28;20021;-71
2023/10/17 01:18:47;;;;;;;8.80;4.00;;;;;;;;;;5046839;28;20043;-72
2023/10/17 01:21:19;;;;;;;9.13;3.55;;;;;;;;;;5053388;28;20034;-72
2023/10/17 01:23:45;;;;;;;10.82;4.55;;;;;;;;;;5052429;28;20071;-72
2023/10/17 01:26:14;;;;;;;11.85;3.33;;;;;;;;;;5053363;28;20448;-72
2023/10/17 01:28:39;;;;;;;7.10;3.90;;;;;;;;;;5042709;28;20025;-72
2023/10/17 01:31:06;;;;;;;9.70;3.90;;;;;;;;;;5053085;28;20362;-72
2023/10/17 01:33:31;;;;;;;12.95;4.63;;;;;;;;;;5053175;28;20147;-72
2023/10/17 01:35:58;;;;;;;10.40;4.75;;;;;;;;;;5053242;28;20121;-72
2023/10/17 01:38:26;;;;;;;9.07;3.58;;;;;;;;;;5053267;28;20021;-72
2023/10/17 01:40:51;;;;;;;7.30;3.67;;;;;;;;;;5053154;28;20096;-72
2023/10/17 01:43:16;;;;;;;7.65;3.85;;;;;;;;;;5046389;28;20445;-72
2023/10/17 01:45:42;;;;;;;10.07;4.40;;;;;;;;;;5047495;28;20472;-72
2023/10/17 01:48:10;;;;;;;10.98;3.90;;;;;;;;;;5053365;28;20283;-72
2023/10/17 01:50:36;;;;;;;11.02;4.32;;;;;;;;;;5053484;28;20116;-72
2023/10/17 01:53:09;;;;;;;10.90;4.20;;;;;;;;;;5053033;28;20474;-72
2023/10/17 01:55:35;;;;;;;9.88;4.07;;;;;;;;;;5052252;28;20027;-72
2023/10/17 01:58:06;;;;;;;14.70;4.45;;;;;;;;;;5041926;28;20382;-72
2023/10/17 02:03:00;;;;;;;13.00;4.20;;;;;;;;;;5046962;28;20028;-72
2023/10/17 02:05:25;;;;;;;7.50;3.85;;;;;;;;;;5052438;28;20021;-72
2023/10/17 02:07:51;;;;;;;9.95;3.97;;;;;;;;;;5052693;28;20730;-72
2023/10/17 02:10:21;;;;;;;8.63;4.00;;;;;;;;;;5052603;28;20025;-72
2023/10/17 02:12:49;;;;;;;;;;;;;;;;;;5043970;28;20041;-72
2023/10/17 02:15:19;;;;;;;8.85;3.65;;;;;;;;;;5044438;28;19904;-72
2023/10/17 02:17:44;;;;;;;7.72;3.72;;;;;;;;;;5052726;28;20437;-72
2023/10/17 02:20:23;;;;;;;8.95;3.97;;;;;;;;;;5051652;28;20158;-72
2023/10/17 02:22:51;;;;;;;16.60;4.85;;;;;;;;;;5052154;28;20017;-72
2023/10/17 02:25:21;;;;;;;9.43;3.60;;;;;;;;;;5052099;28;20017;-72
2023/10/17 02:27:47;;;;;;;6.85;3.75;;;;;;;;;;5049581;28;20096;-72
2023/10/17 02:30:13;;;;;;;6.63;3.85;;;;;;;;;;5049041;28;20112;-72
2023/10/17 02:32:43;;;;;;;9.15;3.95;;;;;;;;;;5052010;28;20064;-72
2023/10/17 02:35:14;;;;;;;8.95;4.40;;;;;;;;;;5052321;28;20485;-72
2023/10/17 02:37:43;;;;;;;8.88;4.47;;;;;;;;;;5052143;28;20052;-72
2023/10/17 02:40:16;;;;;;;7.43;3.92;;;;;;;;;;5051733;28;20028;-72
2023/10/17 02:42:42;;;;;;;9.10;4.03;;;;;;;;;;5045470;28;20025;-72
2023/10/17 02:45:07;;;;;;;11.32;4.45;;;;;;;;;;5045802;28;20029;-72
2023/10/17 02:47:32;;;;;;;11.30;4.13;;;;;;;;;;5043736;28;20496;-72
2023/10/17 02:49:57;;;;;;;7.93;3.88;;;;;;;;;;5044102;28;20092;-72
2023/10/17 02:52:25;;;;;;;13.03;4.33;;;;;;;;;;5051293;28;20021;-72
2023/10/17 02:54:59;;;;;;;7.63;3.78;;;;;;;;;;5051728;28;20335;-72
2023/10/17 02:57:26;;;;;;;9.40;4.20;;;;;;;;;;5048418;28;20025;-72
2023/10/17 02:59:52;;;;;;;11.18;3.95;;;;;;;;;;5044214;28;20029;-72
2023/10/17 03:02:18;;;;;;;6.75;4.07;;;;;;;;;;5050654;28;20027;-72
2023/10/17 03:04:43;;;;;;;10.95;4.07;;;;;;;;;;5051004;28;20033;-72
2023/10/17 03:07:11;;;;;;;9.60;3.67;;;;;;;;;;5051627;28;20095;-72
2023/10/17 03:09:43;;;;;;;6.65;3.80;;;;;;;;;;5051285;28;20789;-72
2023/10/17 03:12:09;;;;;;;10.63;4.40;;;;;;;;;;5028933;28;20053;-72
2023/10/17 03:15:17;;;;;;;10.15;4.18;;;;;;;;;;5045618;28;20013;-72
2023/10/17 03:17:26;;;;;;;7.95;3.50;;;;;;;;;;5044784;28;20023;-72
2023/10/17 03:19:51;;;;;;;12.10;4.20;;;;;;;;;;5051206;28;20020;-72
2023/10/17 03:22:18;;;;;;;11.13;3.87;;;;;;;;;;5051324;28;20017;-72
2023/10/17 03:24:44;;;;;;;9.13;3.50;;;;;;;;;;5050331;28;20309;-71
2023/10/17 03:27:11;;;;;;;8.70;3.55;;;;;;;;;;5044735;28;20020;-72
2023/10/17 03:29:46;;;;;;;10.30;4.55;;;;;;;;;;5050965;28;20029;-72
2023/10/17 03:32:12;;;;;;;7.00;3.75;;;;;;;;;;5047333;28;20016;-72
2023/10/17 03:34:44;;;;;;;12.80;3.97;;;;;;;;;;5050501;28;20021;-72
2023/10/17 03:39:52;;;;;;;;;;;;;;;;;;5047533;28;20031;-71
2023/10/17 03:45:12;;;;;;;9.55;4.03;;;;;;;;;;5047320;28;20139;-72
2023/10/17 03:47:38;;;;;;;10.10;4.00;;;;;;;;;;5043493;28;20108;-72
2023/10/17 03:50:07;;;;;;;9.50;3.42;;;;;;;;;;5050919;28;20541;-72
2023/10/17 03:52:32;;;;;;;11.40;3.83;;;;;;;;;;5050652;28;20023;-72
2023/10/17 03:54:57;;;;;;;12.57;4.10;;;;;;;;;;5048027;28;20013;-72
2023/10/17 03:57:27;;;;;;;11.67;4.13;;;;;;;;;;5050164;28;20154;-72
2023/10/17 03:59:55;;;;;;;7.65;3.60;;;;;;;;;;5050894;28;20251;-72
2023/10/17 04:02:22;;;;;;;8.45;3.80;;;;;;;;;;5050246;28;20017;-71
2023/10/17 04:04:50;;;;;;;8.57;3.25;;;;;;;;;;5050151;28;20013;-72
2023/10/17 04:07:16;;;;;;;11.45;4.25;;;;;;;;;;5042833;28;20020;-72
2023/10/17 04:10:20;;;;;;;12.57;3.42;;;;;;;;;;5048862;28;20029;-72
2023/10/17 04:15:25;;;;;;;7.72;4.07;;;;;;;;;;5046981;28;19992;-72
2023/10/17 04:17:50;;;;;;;9.45;3.55;;;;;;;;;;5050204;28;20029;-72
2023/10/17 04:20:22;;;;;;;8.70;4.00;;;;;;;;;;5048913;28;20016;-72
2023/10/17 04:22:49;;;;;;;13.77;3.65;;;;;;;;;;5044801;28;20024;-72
2023/10/17 04:25:20;;;;;;;7.63;3.85;;;;;;;;;;5042720;28;20036;-72
2023/10/17 04:27:46;;;;;;;9.93;3.95;;;;;;;;;;5042331;28;20409;-72
2023/10/17 04:30:18;;;;;;;10.30;3.88;;;;;;;;;;5046754;28;20013;-72
2023/10/17 04:32:43;;;;;;;10.32;3.90;;;;;;;;;;5041737;28;20021;-72
2023/10/17 04:35:08;;;;;;;11.38;3.97;;;;;;;;;;5049969;28;20062;-72
2023/10/17 04:37:37;;;;;;;9.77;3.88;;;;;;;;;;5049749;28;20100;-72
2023/10/17 04:40:27;;;;;;;10.90;3.75;;;;;;;;;;5049133;28;20017;-72
2023/10/17 04:45:23;;;;;;;9.70;3.83;;;;;;;;;;5049937;28;20504;-72
2023/10/17 04:48:09;;;;;;;13.05;3.80;;;;;;;;;;5049264;28;20266;-72
2023/10/17 04:50:44;;;;;;;7.88;3.92;;;;;;;;;;5048866;28;20051;-72
2023/10/17 04:53:16;;;;;;;9.48;3.97;;;;;;;;;;5049831;28;20358;-72
2023/10/17 04:55:59;;;;;;;7.13;3.60;;;;;;;;;;5048665;28;20049;-72
2023/10/17 04:58:31;;;;;;;6.68;3.25;;;;;;;;;;5044785;28;20090;-72
2023/10/17 05:03:45;;;;;;;7.50;3.88;;;;;;;;;;5046657;28;20049;-72
2023/10/17 06:17:01;;;;;;;6.28;3.00;;;;;;;;;;5050316;28;20067;-72
2023/10/17 06:19:27;;;;;;;8.88;3.70;;;;;;;;;;5050476;28;20053;-72
2023/10/17 06:24:45;;;;;;;6.97;3.53;;;;;;;;;;5052060;28;20032;-72
2023/10/17 06:32:48;;;;;;;8.73;3.28;;;;;;;;;;5047714;28;20462;-72
2023/10/17 06:35:20;;;;;;;13.57;3.70;;;;;;;;;;5050373;28;20062;-73
2023/10/17 06:37:46;;;;;;;6.20;2.70;;;;;;;;;;5043656;28;20115;-72
2023/10/17 06:40:15;;;;;;;8.68;2.90;;;;;;;;;;5051662;28;20009;-71
2023/10/17 06:42:48;;;;;;;7.53;3.13;;;;;;;;;;5051341;28;20067;-72
2023/10/17 06:45:18;;;;;;;7.13;2.67;;;;;;;;;;5045518;28;20025;-72
2023/10/17 06:47:47;;;;;;;6.15;3.30;;;;;;;;;;5049392;28;20028;-71
2023/10/17 06:52:54;;;;;;;7.93;2.95;;;;;;;;;;5051236;28;20501;-72
2023/10/17 06:55:28;;;;;;;4.53;2.50;;;;;;;;;;5046245;28;20021;-72
2023/10/17 06:57:56;;;;;;;7.88;2.65;;;;;;;;;;5049903;28;20023;-72
2023/10/17 07:00:25;;;;;;;7.55;2.47;;;;;;;;;;5048573;28;20040;-72
2023/10/17 07:02:50;;;;;;;7.07;2.72;;;;;;;;;;5046741;28;20024;-72
2023/10/17 07:05:21;;;;;;;15.10;3.60;;;;;;;;;;5051048;28;20016;-72
2023/10/17 07:07:52;;;;;;;10.05;2.92;;;;;;;;;;5050757;28;20017;-72
2023/10/17 07:13:08;;;;;;;9.30;3.00;;;;;;;;;;5046758;28;20067;-71
2023/10/17 07:15:35;;;;;;;5.88;2.58;;;;;;;;;;5046599;28;20100;-71
2023/10/17 07:21:55;;;;;;;4.28;2.58;;;;;;;;;;4999193;28;20044;-72
2023/10/17 07:23:42;;;;;;;4.93;2.58;;;;;;;;;;5014439;28;20163;-72
2023/10/17 07:26:11;;;;;;;10.70;3.42;;;;;;;;;;5028055;28;20013;-72
2023/10/17 07:28:42;;;;;;;6.17;3.03;;;;;;;;;;5030732;28;20025;-72
2023/10/17 07:31:13;;;;;;;6.43;2.72;;;;;;;;;;5030424;28;20025;-72
2023/10/17 07:33:42;;;;;;;11.35;3.60;;;;;;;;;;5030614;28;20025;-72
2023/10/17 07:36:13;;;;;;;7.05;2.38;;;;;;;;;;5028345;28;20714;-72
2023/10/17 07:38:38;;;;;;;7.90;3.55;;;;;;;;;;5027824;28;20021;-71
2023/10/17 07:41:12;;;;;;;7.32;2.65;;;;;;;;;;5031248;28;20024;-72
2023/10/17 07:43:42;;;;;;;5.13;2.85;;;;;;;;;;5030985;28;20028;-72
2023/10/17 07:46:14;;;;;;;9.75;2.88;;;;;;;;;;5030560;28;20052;-72
2023/10/17 07:48:39;;;;;;;8.93;2.80;;;;;;;;;;5030341;28;20021;-72
2023/10/17 07:51:05;;;;;;;5.40;2.77;;;;;;;;;;5026124;28;20051;-72
2023/10/17 07:53:32;;;;;;;5.15;2.72;;;;;;;;;;5027984;28;20267;-72
2023/10/17 07:56:12;;;;;;;4.15;2.20;;;;;;;;;;5030241;28;20088;-72
2023/10/17 07:58:44;;;;;;;7.28;2.42;;;;;;;;;;5021061;28;20095;-72
2023/10/17 08:01:14;;;;;;;4.68;2.45;;;;;;;;;;5030374;28;20022;-72
2023/10/17 08:03:40;;;;;;;8.23;2.30;;;;;;;;;;5029181;28;20040;-72
2023/10/17 08:06:07;;;;;;;3.65;2.55;;;;;;;;;;5026884;28;20129;-72
2023/10/17 08:08:54;;;;;;;6.75;2.75;;;;;;;;;;5030568;28;20024;-72
2023/10/17 08:11:27;;;;;;;5.93;2.55;;;;;;;;;;5022633;28;20029;-72
2023/10/17 08:13:56;;;;;;;6.43;2.15;;;;;;;;;;5029721;28;20017;-71
2023/10/17 08:16:26;;;;;;;6.38;2.30;;;;;;;;;;5030388;28;20020;-72
2023/10/17 08:21:48;;;;;;;4.65;2.65;;;;;;;;;;5048098;28;20472;-72
2023/10/17 08:24:13;;;;;;;4.72;2.53;;;;;;;;;;5026521;28;20013;-72
2023/10/17 08:26:40;;;;;;;4.07;2.25;;;;;;;;;;5049906;28;20017;-72
2023/10/17 08:29:10;;;;;;;6.93;2.55;;;;;;;;;;5049418;28;20049;-72
2023/10/17 08:31:36;;;;;;;8.50;2.67;;;;;;;;;;5046917;28;20017;-72
2023/10/17 08:36:53;;;;;;;5.53;1.77;;;;;;;;;;5045230;28;20091;-71
2023/10/17 08:41:57;;;;;;;6.22;2.30;;;;;;;;;;5049148;28;20036;-72
2023/10/17 08:44:23;;;;;;;4.68;2.03;;;;;;;;;;5048936;28;20025;-72
2023/10/17 08:46:49;;;;;;;6.47;2.88;;;;;;;;;;5048942;28;20035;-72
2023/10/17 08:49:15;;;;;;;8.25;2.50;;;;;;;;;;5045810;28;20428;-71
2023/10/17 08:51:40;;;;;;;3.38;1.95;;;;;;;;;;5049725;28;20067;-72
2023/10/17 08:54:06;;;;;;;5.88;2.20;;;;;;;;;;5049250;28;20505;-72
2023/10/17 08:56:36;;;;;;;5.07;1.92;;;;;;;;;;5049133;28;20508;-72
2023/10/17 08:59:05;;;;;;;6.35;2.17;;;;;;;;;;5045771;28;20056;-72
2023/10/17 09:01:30;;;;;;;4.97;1.95;;;;;;;;;;5043665;28;20028;-71
2023/10/17 09:03:56;;;;;;;5.65;1.70;;;;;;;;;;5046760;28;20017;-72
2023/10/17 09:08:55;;;;;;;5.10;1.90;;;;;;;;;;5045065;28;20021;-72
2023/10/17 09:11:30;;;;;;;4.78;1.90;;;;;;;;;;5045275;28;20821;-72
2023/10/17 09:16:48;;;;;;;9.93;1.92;;;;;;;;;;5042628;28;20048;-72
2023/10/17 09:19:14;;;;;;;4.95;1.63;;;;;;;;;;5046018;28;20021;-72
2023/10/17 09:21:43;;;;;;;5.72;1.20;;;;;;;;;;5041211;28;20444;-72
2023/10/17 09:24:32;;;;;;;4.82;1.58;;;;;;;;;;5048367;28;20035;-72
2023/10/17 09:26:58;;;;;;;5.88;1.38;;;;;;;;;;5048892;28;20025;-72
2023/10/17 09:29:27;;;;;;;3.42;1.05;;;;;;;;;;5048849;28;20029;-72
2023/10/17 09:31:52;;;;;;;8.77;1.50;;;;;;;;;;5036708;28;20017;-72
2023/10/17 09:34:17;;;;;;;4.17;1.60;;;;;;;;;;5036026;28;20095;-72
2023/10/17 09:36:44;;;;;;;3.67;1.40;;;;;;;;;;5050153;28;20731;-72
2023/10/17 09:39:18;;;;;;;7.55;1.75;;;;;;;;;;5053630;28;20021;-72
2023/10/17 09:41:43;;;;;;;2.92;1.02;;;;;;;;;;5052951;28;20036;-72
2023/10/17 09:44:10;;;;;;;6.60;1.30;;;;;;;;;;5052784;28;20025;-72
2023/10/17 09:46:35;;;;;;;2.63;1.25;;;;;;;;;;5038113;28;20749;-72
2023/10/17 09:49:02;;;;;;;1.88;1.10;;;;;;;;;;5045595;28;20036;-71
2023/10/17 09:51:33;;;;;;;6.32;1.42;;;;;;;;;;5052969;28;20475;-72
2023/10/17 09:53:58;;;;;;;5.25;1.73;;;;;;;;;;5050713;28;20383;-72
2023/10/17 09:56:36;;;;;;;4.05;1.40;;;;;;;;;;5051808;28;20024;-72
2023/10/17 09:59:03;;;;;;;3.40;1.50;;;;;;;;;;5035058;28;20049;-72
2023/10/17 10:01:31;;;;;;;3.20;1.40;;;;;;;;;;5040017;28;20017;-72
2023/10/17 10:03:56;;;;;;;5.63;1.55;;;;;;;;;;5044468;28;20067;-72
2023/10/17 10:06:22;;;;;;;6.65;1.50;;;;;;;;;;5052590;28;20036;-72
2023/10/17 10:08:47;;;;;;;2.25;1.40;;;;;;;;;;5052793;28;20021;-71
2023/10/17 10:11:12;;;;;;;5.00;1.23;;;;;;;;;;5052722;28;20116;-71
2023/10/17 10:14:11;;;;;;;3.00;1.27;;;;;;;;;;5051138;28;20017;-72
2023/10/17 10:17:06;;;;;;;6.80;1.55;;;;;;;;;;4992764;28;20328;-72
2023/10/17 10:19:40;;;;;;;0.60;0.60;;;;;;;;;;5028172;28;20460;-72
2023/10/17 10:22:06;;;;;;;1.98;0.82;;;;;;;;;;5051149;28;20013;-71
2023/10/17 10:24:32;;;;;;;2.63;1.25;;;;;;;;;;5052577;28;20049;-72
2023/10/17 10:27:10;;;;;;;4.72;0.70;;;;;;;;;;5050750;28;20049;-71
2023/10/17 10:29:35;;;;;;;7.25;1.38;;;;;;;;;;5034475;28;20025;-71
2023/10/17 10:32:06;;;;;;;5.47;1.25;;;;;;;;;;5051993;28;20013;-72
2023/10/17 10:34:35;;;;;;;2.42;1.30;;;;;;;;;;5050207;28;20021;-72
2023/10/17 10:37:01;;;;;;;4.00;1.60;;;;;;;;;;5051956;28;20397;-72
2023/10/17 10:39:26;;;;;;;1.70;0.80;;;;;;;;;;5052291;28;20104;-72
2023/10/17 10:41:55;;;;;;;7.45;1.45;;;;;;;;;;5046972;28;20052;-72
2023/10/17 10:44:20;;;;;;;4.65;1.40;;;;;;;;;;5041133;28;20031;-72
2023/10/17 10:46:45;;;;;;;6.97;1.10;;;;;;;;;;5044168;28;20025;-71
2023/10/17 10:49:11;;;;;;;3.35;1.30;;;;;;;;;;5043409;28;20284;-72
2023/10/17 10:51:36;;;;;;;4.88;1.58;;;;;;;;;;5042233;28;20032;-73
2023/10/17 10:54:01;;;;;;;5.83;1.30;;;;;;;;;;5050074;28;20064;-72
2023/10/17 10:56:26;;;;;;;4.70;1.42;;;;;;;;;;5036201;28;20329;-73
2023/10/17 10:58:56;;;;;;;2.40;1.30;;;;;;;;;;5035888;28;20109;-72
2023/10/17 11:01:22;;;;;;;4.25;1.38;;;;;;;;;;5040549;28;20025;-71
2023/10/17 11:03:48;;;;;;;2.80;1.30;;;;;;;;;;5048461;28;20102;-73
2023/10/17 11:06:14;;;;;;;4.28;1.23;;;;;;;;;;5043329;28;20021;-72
2023/10/17 11:08:41;;;;;;;1.63;1.20;;;;;;;;;;5046015;28;20025;-72
2023/10/17 11:11:09;;;;;;;2.05;0.85;;;;;;;;;;5037960;28;20522;-72
2023/10/17 11:13:39;;;;;;;2.47;1.42;;;;;;;;;;5050539;28;20103;-72
2023/10/17 11:16:05;;;;;;;1.73;1.08;;;;;;;;;;5042995;28;20028;-71
2023/10/17 11:18:34;;;;;;;2.70;1.52;;;;;;;;;;5048885;28;20029;-72
2023/10/17 11:21:00;;;;;;;4.65;1.10;;;;;;;;;;5049560;28;20067;-72
2023/10/17 11:23:27;;;;;;;2.25;0.88;;;;;;;;;;5051129;28;20480;-72
2023/10/17 11:25:53;;;;;;;3.40;1.17;;;;;;;;;;5050848;28;20021;-72
2023/10/17 11:28:18;;;;;;;3.72;1.02;;;;;;;;;;5050145;28;20423;-72
2023/10/17 11:30:45;;;;;;;2.83;1.27;;;;;;;;;;5038727;28;20096;-72
2023/10/17 11:33:11;;;;;;;2.70;1.25;;;;;;;;;;5045876;28;20009;-72
2023/10/17 11:35:45;;;;;;;2.85;1.20;;;;;;;;;;5050434;28;20012;-72
2023/10/17 11:38:21;;;;;;;5.28;1.50;;;;;;;;;;5051307;28;20739;-72
2023/10/17 11:40:48;;;;;;;2.88;1.10;;;;;;;;;;5047992;28;20052;-73
2023/10/17 11:43:13;;;;;;;2.90;1.25;;;;;;;;;;5042005;28;20017;-72
2023/10/17 11:45:40;;;;;;;6.38;1.30;;;;;;;;;;5047711;28;20405;-72
2023/10/17 11:48:23;;;;;;;3.60;0.95;;;;;;;;;;5050975;28;20100;-71
2023/10/17 11:50:50;;;;;;;2.05;0.88;;;;;;;;;;5050443;28;20078;-72
2023/10/17 11:53:16;;;;;;;5.10;0.82;;;;;;;;;;5050507;28;20465;-73
2023/10/17 11:55:48;;;;;;;1.73;0.98;;;;;;;;;;5049379;28;20025;-72
2023/10/17 11:58:25;;;;;;;1.75;0.82;;;;;;;;;;5044263;28;20017;-72
2023/10/17 12:00:51;;;;;;;1.88;0.93;;;;;;;;;;5049893;28;20049;-72
2023/10/17 12:03:19;;;;;;;1.50;0.90;;;;;;;;;;5050396;28;20056;-72
2023/10/17 12:05:44;;;;;;;4.28;0.98;;;;;;;;;;5049786;28;20020;-72
2023/10/17 12:08:09;;;;;;;4.53;0.77;;;;;;;;;;5050464;28;20013;-72
2023/10/17 12:10:42;;;;;;;2.03;0.90;;;;;;;;;;5041341;28;20025;-72
2023/10/17 12:13:08;;;;;;;3.22;0.90;;;;;;;;;;5037992;28;21438;-72
2023/10/17 12:15:34;;;;;;;1.67;0.85;;;;;;;;;;5044448;28;20074;-73
2023/10/17 12:17:59;;;;;;;1.10;0.80;;;;;;;;;;5041345;28;20060;-73
2023/10/17 12:20:27;;;;;;;5.07;0.98;;;;;;;;;;5026564;28;20033;-72
2023/10/17 12:22:57;;;;;;;2.45;1.08;;;;;;;;;;5028232;28;20020;-72
2023/10/17 12:25:25;;;;;;;15.07;3.00;;;;;;;;;;5023589;28;20448;-72
2023/10/17 12:27:52;;;;;;;5.75;1.10;;;;;;;;;;5026351;28;20397;-72
2023/10/17 12:30:23;;;;;;;7.05;1.02;;;;;;;;;;5025954;28;20083;-72
2023/10/17 12:32:48;;;;;;;2.55;1.00;;;;;;;;;;5026193;28;20044;-72
2023/10/17 12:35:16;;;;;;;5.65;0.80;;;;;;;;;;5023874;28;20038;-72
2023/10/17 12:37:45;;;;;;;5.85;1.00;;;;;;;;;;5017459;28;20016;-73
2023/10/17 12:40:23;;;;;;;3.00;1.30;;;;;;;;;;5019712;28;20028;-72
2023/10/17 12:42:49;;;;;;;5.80;0.88;;;;;;;;;;5025123;28;20025;-72
2023/10/17 12:45:14;;;;;;;1.58;0.85;;;;;;;;;;5025219;28;20104;-72
2023/10/17 12:47:40;;;;;;;1.40;0.70;;;;;;;;;;5017544;28;20026;-72
2023/10/17 12:50:05;;;;;;;4.55;1.35;;;;;;;;;;5029682;28;20539;-73
2023/10/17 12:52:30;;;;;;;3.58;0.85;;;;;;;;;;5029326;28;20037;-72
2023/10/17 12:54:56;;;;;;;1.73;0.63;;;;;;;;;;5029028;28;20143;-72
2023/10/17 12:57:22;;;;;;;1.37;0.90;;;;;;;;;;5020278;28;20017;-72
2023/10/17 12:59:48;;;;;;;3.38;1.35;;;;;;;;;;5013477;28;20317;-72
2023/10/17 13:02:13;;;;;;;1.73;1.00;;;;;;;;;;5025077;28;20017;-72
2023/10/17 13:04:39;;;;;;;1.13;0.68;;;;;;;;;;5029105;28;20326;-72
2023/10/17 13:07:05;;;;;;;1.77;0.70;;;;;;;;;;5027944;28;20057;-72
2023/10/17 13:09:33;;;;;;;1.20;0.80;;;;;;;;;;5019315;28;20117;-71
2023/10/17 13:11:58;;;;;;;2.30;0.60;;;;;;;;;;5027174;28;20387;-72
2023/10/17 13:14:24;;;;;;;1.75;0.70;;;;;;;;;;5033822;28;20112;-73
2023/10/17 13:16:49;;;;;;;3.40;1.17;;;;;;;;;;5024792;28;20017;-72
2023/10/17 13:19:18;;;;;;;2.40;0.90;;;;;;;;;;5035428;28;20907;-72
2023/10/17 13:21:45;;;;;;;2.33;1.15;;;;;;;;;;5044487;28;20640;-73
2023/10/17 13:24:10;;;;;;;2.08;1.08;;;;;;;;;;5043177;28;20017;-72
2023/10/17 13:26:37;;;;;;;3.77;0.80;;;;;;;;;;5043298;28;20112;-72
2023/10/17 13:29:04;;;;;;;1.27;0.80;;;;;;;;;;5045063;28;20302;-72
2023/10/17 13:31:29;;;;;;;1.60;0.85;;;;;;;;;;5046473;28;20045;-72
2023/10/17 13:33:55;;;;;;;2.37;0.70;;;;;;;;;;5039069;28;20052;-72
2023/10/17 13:36:21;;;;;;;3.20;1.02;;;;;;;;;;5037355;28;20268;-72
2023/10/17 13:38:48;;;;;;;0.70;0.50;;;;;;;;;;5043301;28;20016;-72
2023/10/17 13:41:15;;;;;;;14.35;2.13;;;;;;;;;;5038547;28;20022;-73
2023/10/17 13:43:41;;;;;;;5.38;1.13;;;;;;;;;;5038683;28;20016;-68
2023/10/17 13:46:09;;;;;;;14.65;1.85;;;;;;;;;;5040566;28;20022;-72
2023/10/17 13:48:36;;;;;;;1.55;1.10;;;;;;;;;;5045717;28;20107;-72
2023/10/17 13:51:06;;;;;;;1.75;0.90;;;;;;;;;;5038410;28;20019;-72
2023/10/17 13:53:31;;;;;;;2.55;0.80;;;;;;;;;;5041331;28;20030;-72
2023/10/17 13:55:57;;;;;;;2.83;1.50;;;;;;;;;;5035555;28;20478;-72
2023/10/17 13:58:22;;;;;;;11.38;5.68;;;;;;;;;;5040298;28;20493;-72
2023/10/17 14:01:01;;;;;;;5.93;2.80;;;;;;;;;;5044269;28;20497;-72
2023/10/17 14:03:26;;;;;;;4.70;1.20;;;;;;;;;;5036479;28;20318;-72
2023/10/17 14:05:51;;;;;;;6.28;2.17;;;;;;;;;;5035436;28;20029;-72
2023/10/17 14:08:18;;;;;;;8.73;2.27;;;;;;;;;;5040535;28;20067;-72
2023/10/17 14:10:44;;;;;;;13.07;6.20;;;;;;;;;;5045492;28;20611;-72
2023/10/17 14:13:11;;;;;;;8.02;2.92;;;;;;;;;;5038677;28;20014;-73
2023/10/17 14:15:36;;;;;;;1.45;0.85;;;;;;;;;;5042437;28;20079;-72
2023/10/17 14:18:09;;;;;;;1.55;0.55;;;;;;;;;;5035593;28;20032;-72
2023/10/17 14:21:04;;;;;;;3.85;1.02;;;;;;;;;;5037340;28;20022;-72
2023/10/17 14:23:26;;;;;;;3.88;1.02;;;;;;;;;;5036118;28;20068;-72
2023/10/17 14:26:02;;;;;;;2.40;1.10;;;;;;;;;;5039849;28;20029;-72
2023/10/17 14:28:29;;;;;;;3.03;1.00;;;;;;;;;;5037775;28;20424;-72
2023/10/17 14:30:54;;;;;;;1.35;0.75;;;;;;;;;;5035129;28;20490;-73
2023/10/17 14:33:19;;;;;;;2.33;1.00;;;;;;;;;;5035495;28;20064;-72
2023/10/17 14:35:46;;;;;;;2.70;0.97;;;;;;;;;;5038287;28;20044;-72
2023/10/17 14:38:11;;;;;;;4.07;1.05;;;;;;;;;;5039792;28;20288;-72
2023/10/17 14:40:38;;;;;;;1.85;1.00;;;;;;;;;;5040344;28;20116;-72
2023/10/17 14:43:08;;;;;;;7.93;1.08;;;;;;;;;;5042289;28;20022;-72
2023/10/17 14:45:37;;;;;;;1.52;0.80;;;;;;;;;;5037495;28;20070;-71
2023/10/17 14:48:02;;;;;;;1.83;0.80;;;;;;;;;;5038334;28;20028;-71
2023/10/17 14:50:30;;;;;;;5.05;1.35;;;;;;;;;;5042785;28;20022;-72
2023/10/17 14:52:55;;;;;;;1.70;0.80;;;;;;;;;;5039005;28;20025;-72
2023/10/17 14:55:23;;;;;;;3.13;1.17;;;;;;;;;;5046066;28;20516;-71
2023/10/17 14:57:49;;;;;;;2.22;0.88;;;;;;;;;;5043047;28;20295;-72
2023/10/17 15:00:14;;;;;;;1.73;1.00;;;;;;;;;;5040811;28;20765;-71
2023/10/17 15:02:40;;;;;;;1.60;0.77;;;;;;;;;;5043544;28;20013;-72
2023/10/17 15:05:07;;;;;;;2.25;0.90;;;;;;;;;;5040690;28;20016;-72
2023/10/17 15:07:33;;;;;;;6.93;1.40;;;;;;;;;;5044312;28;20052;-72
2023/10/17 15:09:59;;;;;;;2.38;1.17;;;;;;;;;;5040832;28;20017;-72
2023/10/17 15:12:25;;;;;;;2.00;1.20;;;;;;;;;;5045250;28;20028;-71
2023/10/17 15:14:50;;;;;;;3.08;1.20;;;;;;;;;;5043260;28;20029;-71
2023/10/17 15:17:15;;;;;;;3.60;1.08;;;;;;;;;;5046101;28;20112;-71
2023/10/17 15:19:40;;;;;;;5.10;0.80;;;;;;;;;;5051020;28;20056;-72
2023/10/17 15:22:05;;;;;;;6.03;1.83;;;;;;;;;;5050600;28;20719;-72
2023/10/17 15:24:31;;;;;;;2.37;1.00;;;;;;;;;;5050230;28;20309;-72
2023/10/17 15:26:58;;;;;;;1.53;1.00;;;;;;;;;;5051055;28;20255;-72
2023/10/17 15:29:23;;;;;;;2.72;1.10;;;;;;;;;;5051469;28;20278;-72
2023/10/17 15:31:52;;;;;;;5.10;1.53;;;;;;;;;;5050538;28;20025;-71
2023/10/17 15:34:18;;;;;;;4.15;1.00;;;;;;;;;;5049819;28;20252;-72
2023/10/17 15:36:43;;;;;;;3.60;0.88;;;;;;;;;;5032795;28;20072;-72
2023/10/17 15:39:12;;;;;;;3.60;1.23;;;;;;;;;;5050909;28;20441;-71
2023/10/17 15:41:37;;;;;;;1.75;0.98;;;;;;;;;;5048635;28;20264;-71
2023/10/17 15:44:03;;;;;;;1.93;1.20;;;;;;;;;;5050566;28;20024;-71
2023/10/17 15:46:28;;;;;;;1.92;0.90;;;;;;;;;;5050385;28;20723;-70
2023/10/17 15:48:54;;;;;;;5.80;0.93;;;;;;;;;;5050162;28;20044;-71
2023/10/17 15:51:19;;;;;;;2.55;0.90;;;;;;;;;;5050663;28;20096;-71
2023/10/17 15:53:45;;;;;;;1.98;1.10;;;;;;;;;;5049720;28;20013;-71
2023/10/17 15:56:10;;;;;;;3.20;1.30;;;;;;;;;;5050060;28;20021;-71
2023/10/17 15:58:36;;;;;;;3.33;0.95;;;;;;;;;;5050443;28;20104;-72
2023/10/17 16:01:01;;;;;;;2.90;1.33;;;;;;;;;;5050268;28;20025;-71
2023/10/17 16:03:29;;;;;;;5.63;1.30;;;;;;;;;;5050193;28;20256;-71
2023/10/17 16:05:54;;;;;;;3.15;1.10;;;;;;;;;;5046698;28;20457;-72
2023/10/17 16:08:20;;;;;;;6.80;1.67;;;;;;;;;;5050422;28;20024;-73
2023/10/17 16:10:46;;;;;;;9.00;1.35;;;;;;;;;;5049532;28;20025;-72
2023/10/17 16:13:11;;;;;;;3.03;1.10;;;;;;;;;;5049619;28;20013;-72
2023/10/17 16:15:37;;;;;;;2.65;1.40;;;;;;;;;;5049646;28;20051;-72
2023/10/17 16:18:02;;;;;;;3.63;1.50;;;;;;;;;;5049977;28;20405;-72
2023/10/17 16:20:28;;;;;;;4.13;1.88;;;;;;;;;;5050217;28;20020;-72
2023/10/17 16:22:53;;;;;;;5.22;1.60;;;;;;;;;;5049474;28;20021;-72
2023/10/17 16:25:20;;;;;;;5.22;1.50;;;;;;;;;;5050098;28;20447;-72
2023/10/17 16:27:47;;;;;;;3.08;1.55;;;;;;;;;;5049177;28;20017;-72
2023/10/17 16:30:12;;;;;;;4.97;1.42;;;;;;;;;;5049876;28;20013;-72
2023/10/17 16:32:38;;;;;;;3.13;1.33;;;;;;;;;;5049552;28;20020;-72
2023/10/17 16:35:04;;;;;;;3.53;1.38;;;;;;;;;;5049641;28;20291;-72
2023/10/17 16:37:31;;;;;;;5.05;1.83;;;;;;;;;;5049061;28;20013;-72
2023/10/17 16:39:56;;;;;;;4.80;1.75;;;;;;;;;;5048626;28;20021;-72
2023/10/17 16:42:21;;;;;;;3.67;1.85;;;;;;;;;;5048709;28;20040;-72
2023/10/17 16:44:47;;;;;;;2.05;1.10;;;;;;;;;;5047541;28;20031;-72
2023/10/17 16:47:12;;;;;;;3.70;1.33;;;;;;;;;;5047899;28;20108;-72
2023/10/17 16:49:37;;;;;;;3.57;1.70;;;;;;;;;;5048690;28;20021;-72